»·PEaware :: N921VN KNYL-KOLS

N921VN :: KNYL-KOLS

FLIGHT INFORMATION

Flight Status: Arrived
Operator: Privately registered:
United States
More flights under this callsign
Pilot: Kevin M. (7)
Aircraft: SOCATA TBM-900
(TBM9)
More flights by this aircraft type
Origin: KNYL Yuma MCAS/Yuma Intl
United States
Destination: KOLS Nogales Intl
United States
More flights between these airports :: More routes between these airports
Route:
File this flight plan on PilotEdge
Remarks: alphabet challenge
Altitude:
(Current/Filed)
17,500ft
Speed:
(Current/Filed)
140kts
Departed: 22-Oct-20 07:30 AM
Arrived: 22-Oct-20 08:22 AM
Distance/Time
Traveled:
205nm/0:52
Distance/Time
To Go:
Arrived

Flight Plot

Page will automatically refresh every two minutes.

Flight plan parsing failed; only flown route is shown


Map Options




Map Legend


Flown Route
Filed Route
Departure Airport
Arrival Airport
Navaid (VOR, NDB)
Fix

Horizontal Profiles

Position Reports

Time Latitude Longitude Heading Altitude Ground
Speed
22-Oct-20 07:18 32.667627 -114.599311 183 205ft 0kts
22-Oct-20 07:19 32.667627 -114.599311 183 205ft 0kts
22-Oct-20 07:20 32.667627 -114.599311 183 205ft 0kts
22-Oct-20 07:21 32.667627 -114.599311 183 205ft 0kts
22-Oct-20 07:22 32.667627 -114.599311 183 205ft 0kts
22-Oct-20 07:23 32.667627 -114.599311 183 205ft 0kts
22-Oct-20 07:24 32.667627 -114.599311 183 205ft 0kts
22-Oct-20 07:25 32.667270 -114.600911 268 205ft 15kts
22-Oct-20 07:26 32.666728 -114.605584 180 200ft 0kts
22-Oct-20 07:27 32.666728 -114.605584 180 200ft 0kts
22-Oct-20 07:28 32.666728 -114.605584 180 200ft 0kts
22-Oct-20 07:29 32.665984 -114.598901 89 205ft 89kts
22-Oct-20 07:30 32.678163 -114.556053 72 1722ft 175kts
22-Oct-20 07:31 32.700780 -114.495918 68 3016ft 222kts
22-Oct-20 07:32 32.727162 -114.425993 68 4002ft 237kts
22-Oct-20 07:33 32.754303 -114.353860 68 4972ft 241kts
22-Oct-20 07:34 32.773629 -114.278258 96 5999ft 240kts
22-Oct-20 07:35 32.773619 -114.198330 92 6996ft 243kts
22-Oct-20 07:36 32.774364 -114.116760 90 7785ft 253kts
22-Oct-20 07:37 32.775247 -114.031575 90 8289ft 260kts
22-Oct-20 07:38 32.779133 -113.945502 77 8722ft 265kts
22-Oct-20 07:39 32.792063 -113.859411 80 9220ft 265kts
22-Oct-20 07:40 32.804485 -113.772760 80 9721ft 266kts
22-Oct-20 07:41 32.816888 -113.685588 81 10220ft 268kts
22-Oct-20 07:42 32.829353 -113.597604 81 10721ft 270kts
22-Oct-20 07:43 32.841836 -113.509026 81 11223ft 272kts
22-Oct-20 07:44 32.854326 -113.419949 81 11724ft 274kts
22-Oct-20 07:45 32.866834 -113.330246 80 12225ft 276kts
22-Oct-20 07:46 32.879352 -113.240020 80 12727ft 277kts
22-Oct-20 07:47 32.891880 -113.149165 80 13230ft 279kts
22-Oct-20 07:48 32.904412 -113.057805 80 13732ft 280kts
22-Oct-20 07:49 32.916966 -112.965773 80 14233ft 282kts
22-Oct-20 07:50 32.929531 -112.873118 80 14734ft 284kts
22-Oct-20 07:51 32.942096 -112.779934 80 15235ft 286kts
22-Oct-20 07:52 32.953237 -112.685832 93 15736ft 289kts
22-Oct-20 07:53 32.919868 -112.599946 121 16244ft 291kts
22-Oct-20 07:54 32.880006 -112.515647 119 16756ft 293kts
22-Oct-20 07:55 32.839489 -112.430866 119 17265ft 296kts
22-Oct-20 07:57 32.798105 -112.344794 120 17522ft 304kts
22-Oct-20 07:58 32.755619 -112.256718 120 17526ft 309kts
22-Oct-20 07:59 32.712767 -112.168159 120 17533ft 309kts
22-Oct-20 08:00 32.669821 -112.079612 120 17532ft 309kts
22-Oct-20 08:01 32.626857 -111.991249 120 17535ft 309kts
22-Oct-20 08:02 32.584006 -111.903315 120 17543ft 309kts
22-Oct-20 08:03 32.540976 -111.815234 120 17539ft 308kts
22-Oct-20 08:04 32.497844 -111.727154 121 17542ft 308kts
22-Oct-20 08:05 32.454657 -111.639174 121 17547ft 309kts
22-Oct-20 08:06 32.411268 -111.550984 121 17550ft 309kts
22-Oct-20 08:07 32.357455 -111.474335 151 17536ft 304kts
22-Oct-20 08:08 32.283371 -111.426134 152 17545ft 303kts
22-Oct-20 08:09 32.210047 -111.377121 153 17550ft 303kts
22-Oct-20 08:10 32.136407 -111.327647 153 17550ft 304kts
22-Oct-20 08:11 32.062999 -111.278291 153 17554ft 303kts
22-Oct-20 08:12 31.989895 -111.229179 153 17560ft 303kts
22-Oct-20 08:13 31.916481 -111.179946 153 17559ft 303kts
22-Oct-20 08:14 31.843343 -111.130976 153 17558ft 301kts
22-Oct-20 08:14 31.782295 -111.090303 153 17105ft 310kts
22-Oct-20 08:15 31.705899 -111.037449 156 14177ft 319kts
22-Oct-20 08:17 31.619304 -110.986444 155 11594ft 291kts
22-Oct-20 08:17 31.559090 -110.948525 151 9708ft 293kts
22-Oct-20 08:19 31.478835 -110.896979 152 7359ft 283kts
22-Oct-20 08:19 31.439116 -110.849282 72 5892ft 224kts
22-Oct-20 08:20 31.432349 -110.824461 251 4536ft 148kts
22-Oct-20 08:21 31.416502 -110.849351 229 3893ft 32kts
22-Oct-20 08:22 31.417298 -110.850963 307 3888ft 0kts
22-Oct-20 08:23 31.417298 -110.850963 307 3888ft 0kts

Navigation Log

Ident Type
Flight plan parsing failed, navigation log unavailable